createdAt,value
2023-07-12T00:00:17.575Z,3.97
2023-07-12T00:03:24.246Z,3.90
2023-07-12T00:06:38.271Z,4.05
2023-07-12T00:09:40.937Z,3.67
2023-07-12T00:12:43.314Z,3.72
2023-07-12T00:15:47.666Z,4.57
2023-07-12T00:18:50.293Z,3.97
2023-07-12T00:21:52.591Z,3.72
2023-07-12T00:24:54.815Z,4.60
2023-07-12T00:27:57.384Z,4.22
2023-07-12T00:30:59.647Z,3.63
2023-07-12T00:34:02.807Z,4.40
2023-07-12T00:37:12.982Z,3.85
2023-07-12T00:40:54.469Z,4.30
2023-07-12T00:44:05.895Z,4.00
2023-07-12T00:47:12.678Z,5.43
2023-07-12T00:50:20.260Z,4.70
2023-07-12T00:53:24.918Z,4.22
2023-07-12T00:56:27.799Z,4.35
2023-07-12T00:59:31.285Z,4.70
2023-07-12T01:02:33.870Z,4.25
2023-07-12T01:05:37.295Z,4.30
2023-07-12T01:08:44.662Z,4.72
2023-07-12T01:11:47.567Z,4.13
2023-07-12T01:14:49.892Z,5.00
2023-07-12T01:17:52.280Z,4.53
2023-07-12T01:21:08.329Z,4.32
2023-07-12T01:24:13.286Z,5.68
2023-07-12T01:27:21.437Z,4.25
2023-07-12T01:30:23.676Z,5.05
2023-07-12T01:33:26.412Z,4.68
2023-07-12T01:36:30.085Z,4.95
2023-07-12T01:39:34.191Z,4.72
2023-07-12T01:42:36.449Z,5.20
2023-07-12T01:45:38.767Z,5.13
2023-07-12T01:48:41.615Z,4.40
2023-07-12T01:51:44.599Z,5.03
2023-07-12T01:54:50.960Z,4.68
2023-07-12T01:57:54.757Z,4.63
2023-07-12T02:00:59.231Z,4.65
2023-07-12T02:04:02.038Z,5.00
2023-07-12T02:07:04.784Z,5.38
2023-07-12T02:10:19.042Z,4.88
2023-07-12T02:13:22.648Z,4.50
2023-07-12T02:16:24.998Z,5.57
2023-07-12T02:19:27.280Z,5.65
2023-07-12T02:22:31.928Z,4.40
2023-07-12T02:25:34.984Z,4.85
2023-07-12T02:28:40.392Z,4.55
2023-07-12T02:31:43.396Z,5.60
2023-07-12T02:34:45.712Z,5.35
2023-07-12T02:37:48.730Z,5.15
2023-07-12T02:40:50.984Z,4.90
2023-07-12T02:43:53.243Z,5.03
2023-07-12T02:46:55.539Z,4.55
2023-07-12T02:49:57.814Z,5.22
2023-07-12T02:53:00.068Z,5.68
2023-07-12T02:56:04.635Z,4.63
2023-07-12T02:59:07.159Z,4.82
2023-07-12T03:02:11.484Z,4.60
2023-07-12T03:05:13.853Z,5.53
2023-07-12T03:08:16.134Z,4.85
2023-07-12T03:11:18.415Z,4.93
2023-07-12T03:14:22.449Z,5.00
2023-07-12T03:17:24.724Z,4.85
2023-07-12T03:20:27.030Z,4.88
2023-07-12T03:23:34.157Z,5.72
2023-07-12T03:26:37.378Z,4.80
2023-07-12T03:29:39.600Z,4.82
2023-07-12T03:32:41.896Z,4.95
2023-07-12T03:35:51.056Z,5.25
2023-07-12T03:38:53.860Z,5.60
2023-07-12T03:41:56.363Z,5.00
2023-07-12T03:44:58.768Z,4.47
2023-07-12T03:48:01.052Z,4.82
2023-07-12T03:51:03.452Z,5.05
2023-07-12T03:54:05.751Z,5.50
2023-07-12T03:57:08.668Z,5.20
2023-07-12T04:00:14.028Z,4.63
2023-07-12T04:03:17.874Z,5.22
2023-07-12T04:06:20.232Z,5.80
2023-07-12T04:09:22.478Z,5.03
2023-07-12T04:12:24.936Z,4.97
2023-07-12T04:15:27.223Z,5.32
2023-07-12T04:18:29.873Z,4.78
2023-07-12T04:21:32.333Z,4.80
2023-07-12T04:24:34.572Z,4.97
2023-07-12T04:27:38.472Z,5.63
2023-07-12T04:30:40.833Z,5.75
2023-07-12T04:33:43.280Z,4.63
2023-07-12T04:36:45.534Z,5.45
2023-07-12T04:39:47.775Z,5.53
2023-07-12T04:42:50.086Z,4.53
2023-07-12T04:45:53.695Z,6.05
2023-07-12T04:48:56.994Z,5.03
2023-07-12T04:51:59.741Z,6.35
2023-07-12T04:55:19.686Z,5.40
2023-07-12T04:58:22.207Z,5.75
2023-07-12T05:01:24.594Z,5.40
2023-07-12T05:04:27.014Z,5.03
2023-07-12T05:07:32.443Z,5.43
2023-07-12T05:10:34.952Z,5.40
2023-07-12T05:13:37.314Z,5.43
2023-07-12T05:16:39.716Z,4.97
2023-07-12T05:19:42.127Z,5.90
2023-07-12T05:22:44.615Z,6.15
2023-07-12T05:25:51.489Z,5.60
2023-07-12T05:28:54.658Z,5.50
2023-07-12T05:31:57.384Z,6.60
2023-07-12T05:34:59.736Z,6.10
2023-07-12T05:38:02.041Z,6.55
2023-07-12T05:41:04.767Z,5.35
2023-07-12T05:44:07.125Z,6.15
2023-07-12T05:47:09.455Z,5.72
2023-07-12T05:50:14.463Z,6.10
2023-07-12T05:53:16.739Z,6.32
2023-07-12T05:56:18.975Z,6.25
2023-07-12T05:59:22.785Z,5.63
2023-07-12T06:02:25.302Z,7.20
2023-07-12T06:05:27.764Z,6.63
2023-07-12T06:08:30.126Z,6.82
2023-07-12T06:11:32.464Z,6.55
2023-07-12T06:14:34.962Z,7.18
2023-07-12T06:17:37.618Z,6.32
2023-07-12T06:20:39.867Z,7.05
2023-07-12T06:23:43.331Z,5.75
2023-07-12T06:26:46.151Z,6.45
2023-07-12T06:29:48.664Z,6.47
2023-07-12T06:32:51.080Z,6.38
2023-07-12T06:35:53.674Z,6.22
2023-07-12T06:38:56.096Z,6.38
2023-07-12T06:41:58.399Z,6.70
2023-07-12T06:45:08.128Z,7.32
2023-07-12T06:48:10.423Z,7.03
2023-07-12T06:51:12.878Z,6.93
2023-07-12T06:54:15.929Z,6.75
2023-07-12T06:57:18.236Z,6.75
2023-07-12T07:00:20.933Z,7.43
2023-07-12T07:03:23.988Z,6.57
2023-07-12T07:06:26.693Z,6.63
2023-07-12T07:09:29.035Z,6.93
2023-07-12T07:12:32.434Z,7.15
2023-07-12T07:15:34.850Z,7.72
2023-07-12T07:18:37.597Z,6.78
2023-07-12T07:21:42.562Z,6.90
2023-07-12T07:24:45.229Z,7.78
2023-07-12T07:27:48.115Z,6.68
2023-07-12T07:30:56.962Z,7.50
2023-07-12T07:33:59.222Z,6.95
2023-07-12T07:37:01.861Z,6.68
2023-07-12T07:40:04.766Z,7.03
2023-07-12T07:43:07.328Z,6.65
2023-07-12T07:46:10.883Z,6.82
2023-07-12T07:49:13.409Z,6.45
2023-07-12T07:52:15.666Z,6.90
2023-07-12T07:55:17.925Z,6.75
2023-07-12T07:58:21.906Z,7.10
2023-07-12T08:01:24.210Z,6.72
2023-07-12T08:04:26.643Z,7.15
2023-07-12T08:07:29.324Z,7.07
2023-07-12T08:10:33.688Z,7.22
2023-07-12T08:13:36.453Z,6.80
2023-07-12T08:16:38.907Z,6.30
2023-07-12T08:19:41.263Z,6.65
2023-07-12T08:22:43.938Z,6.18
2023-07-12T08:25:46.230Z,6.72
2023-07-12T08:28:49.088Z,7.15
2023-07-12T08:31:54.071Z,7.43
2023-07-12T08:34:57.708Z,7.93
2023-07-12T08:38:00.031Z,7.00
2023-07-12T08:41:02.369Z,6.32
2023-07-12T08:44:06.720Z,6.93
2023-07-12T08:47:20.941Z,6.65
2023-07-12T08:50:23.461Z,7.30
2023-07-12T08:53:31.074Z,7.32
2023-07-12T08:56:33.521Z,7.53
2023-07-12T08:59:35.933Z,7.18
2023-07-12T09:02:38.486Z,7.72
2023-07-12T09:05:40.927Z,7.18
2023-07-12T09:08:51.976Z,8.23
2023-07-12T09:11:55.568Z,8.25
2023-07-12T09:15:00.649Z,8.18
2023-07-12T09:18:07.589Z,7.70
2023-07-12T09:21:22.618Z,7.82
2023-07-12T09:24:29.145Z,7.40
2023-07-12T09:27:31.397Z,6.88
2023-07-12T09:30:35.817Z,7.50
2023-07-12T09:33:38.276Z,7.43
2023-07-12T09:36:40.889Z,7.80
2023-07-12T09:39:53.749Z,8.10
2023-07-12T09:42:59.563Z,7.68
2023-07-12T09:46:26.451Z,7.22
2023-07-12T09:49:40.710Z,8.07
2023-07-12T09:52:57.816Z,8.55
2023-07-12T09:56:26.616Z,7.50
2023-07-12T09:59:31.789Z,8.18
2023-07-12T10:03:16.125Z,7.97
2023-07-12T10:06:43.883Z,8.20
2023-07-12T10:09:49.524Z,7.40
2023-07-12T10:13:28.811Z,7.85
2023-07-12T10:16:36.167Z,7.38
2023-07-12T10:19:41.267Z,8.10
2023-07-12T10:22:45.720Z,8.13
2023-07-12T10:26:10.423Z,8.77
2023-07-12T10:29:22.627Z,8.52
2023-07-12T10:32:37.735Z,8.27
2023-07-12T10:35:50.217Z,8.02
2023-07-12T10:38:53.083Z,8.18
2023-07-12T10:42:06.982Z,8.27
2023-07-12T10:45:26.313Z,8.63
2023-07-12T10:48:30.458Z,8.57
2023-07-12T10:51:38.362Z,9.02
2023-07-12T10:54:53.046Z,8.13
2023-07-12T10:58:26.005Z,8.82
2023-07-12T11:01:43.494Z,8.63
2023-07-12T11:04:48.051Z,8.40
2023-07-12T11:07:50.365Z,8.20
2023-07-12T11:10:53.773Z,8.98
2023-07-12T11:14:44.816Z,9.40
2023-07-12T11:17:55.113Z,9.20
2023-07-12T11:21:25.602Z,9.10
2023-07-12T11:24:31.097Z,9.27
2023-07-12T11:27:57.622Z,8.95
2023-07-12T11:31:24.896Z,8.40
2023-07-12T11:34:28.580Z,8.98
2023-07-12T11:37:46.990Z,8.70
2023-07-12T11:40:53.932Z,9.10
2023-07-12T11:47:10.869Z,8.40
2023-07-12T11:50:21.513Z,8.55
2023-07-12T11:53:25.238Z,9.00
2023-07-12T11:56:29.416Z,8.55
2023-07-12T11:59:37.775Z,8.98
2023-07-12T12:02:42.813Z,8.02
2023-07-12T12:05:49.605Z,7.75
2023-07-12T12:15:01.894Z,7.90
2023-07-12T12:18:17.137Z,8.52
2023-07-12T12:21:23.743Z,8.15
2023-07-12T12:24:26.556Z,7.85
2023-07-12T12:27:36.573Z,8.15
2023-07-12T12:30:38.888Z,7.20
2023-07-12T12:33:50.897Z,8.50
2023-07-12T12:37:10.554Z,8.02
2023-07-12T12:40:19.043Z,7.53
2023-07-12T12:43:21.362Z,8.27
2023-07-12T12:46:24.757Z,8.23
2023-07-12T12:53:26.896Z,7.05
2023-07-12T13:05:32.488Z,7.70
2023-07-12T13:18:12.199Z,7.25
2023-07-12T13:21:26.242Z,7.15
2023-07-12T13:24:29.105Z,7.72
2023-07-12T13:27:37.587Z,7.13
2023-07-12T13:30:40.978Z,7.82
2023-07-12T13:33:55.559Z,7.32
2023-07-12T13:37:00.384Z,8.05
2023-07-12T13:40:04.198Z,8.10
2023-07-12T13:43:31.416Z,8.30
2023-07-12T13:46:33.269Z,6.97
2023-07-12T13:49:35.570Z,7.72
2023-07-12T13:52:37.847Z,7.15
2023-07-12T14:03:05.309Z,6.93
2023-07-12T14:11:31.151Z,7.65
2023-07-12T14:14:33.398Z,7.72
2023-07-12T14:17:36.341Z,7.53
2023-07-12T14:20:39.055Z,7.65
2023-07-12T14:23:42.255Z,8.32
2023-07-12T14:26:44.910Z,7.88
2023-07-12T14:32:55.864Z,7.65
2023-07-12T14:35:58.629Z,7.40
2023-07-12T14:39:01.765Z,7.20
2023-07-12T14:42:04.536Z,5.55
2023-07-12T14:45:13.642Z,5.20
2023-07-12T14:48:16.403Z,5.72
2023-07-12T14:51:24.291Z,5.90
2023-07-12T14:54:26.770Z,5.63
2023-07-12T14:58:02.951Z,5.60
2023-07-12T15:00:52.614Z,5.75
2023-07-12T15:03:57.280Z,5.35
2023-07-12T15:06:59.609Z,5.65
2023-07-12T15:10:05.101Z,5.68
2023-07-12T15:13:10.092Z,4.72
2023-07-12T15:16:20.839Z,4.68
2023-07-12T15:19:23.174Z,4.65
2023-07-12T15:22:29.747Z,5.13
2023-07-12T15:25:32.326Z,5.07
2023-07-12T15:28:39.565Z,4.85
2023-07-12T15:31:41.864Z,4.63
2023-07-12T15:34:47.182Z,3.75
2023-07-12T15:37:54.679Z,4.25
2023-07-12T15:40:59.439Z,3.90
2023-07-12T15:44:02.130Z,3.97
2023-07-12T15:47:04.777Z,4.00
2023-07-12T15:50:08.906Z,3.60
2023-07-12T15:53:19.493Z,3.92
2023-07-12T15:56:26.037Z,4.10
2023-07-12T15:59:30.304Z,3.70
2023-07-12T16:02:32.679Z,3.80
2023-07-12T16:05:35.203Z,3.50
2023-07-12T16:08:38.538Z,3.92
2023-07-12T16:11:44.755Z,3.83
2023-07-12T16:14:47.365Z,3.83
2023-07-12T16:17:49.903Z,4.30
2023-07-12T16:20:54.314Z,3.72
2023-07-12T16:23:58.063Z,4.22
2023-07-12T16:27:00.316Z,3.55
2023-07-12T16:30:02.547Z,4.07
2023-07-12T16:33:16.498Z,4.18
2023-07-12T16:36:19.218Z,4.30
2023-07-12T16:39:21.857Z,3.80
2023-07-12T16:42:28.575Z,4.10
2023-07-12T16:45:30.968Z,3.67
2023-07-12T16:48:33.863Z,4.40
2023-07-12T16:52:00.020Z,3.78
2023-07-12T16:55:02.389Z,3.90
2023-07-12T16:58:17.782Z,4.28
2023-07-12T17:01:27.259Z,4.13
2023-07-12T17:04:30.274Z,4.20
2023-07-12T17:07:32.685Z,4.53
2023-07-12T17:10:34.958Z,3.90
2023-07-12T17:13:37.239Z,3.88
2023-07-12T17:16:40.758Z,4.20
2023-07-12T17:19:44.295Z,3.60
2023-07-12T17:22:46.560Z,4.22
2023-07-12T17:25:49.639Z,4.15
2023-07-12T17:28:51.889Z,4.30
2023-07-12T17:31:54.249Z,4.28
2023-07-12T17:34:56.817Z,4.32
2023-07-12T17:37:59.028Z,4.53
2023-07-12T17:41:02.564Z,3.92
2023-07-12T17:44:04.865Z,5.03
2023-07-12T17:47:17.703Z,4.43
2023-07-12T17:50:22.487Z,4.57
2023-07-12T17:53:24.917Z,4.05
2023-07-12T17:56:27.392Z,3.70
2023-07-12T17:59:29.632Z,4.13
2023-07-12T18:02:37.654Z,4.35
2023-07-12T18:05:44.494Z,5.05
2023-07-12T18:08:47.094Z,4.80
2023-07-12T18:11:49.450Z,3.92
2023-07-12T18:14:51.959Z,4.80
2023-07-12T18:17:54.288Z,5.90
2023-07-12T18:21:42.524Z,5.22
2023-07-12T18:24:54.644Z,5.13
2023-07-12T18:28:28.214Z,5.20
2023-07-12T18:31:38.165Z,6.35
2023-07-12T18:34:40.500Z,4.78
2023-07-12T18:37:42.884Z,5.20
2023-07-12T18:40:45.492Z,5.22
2023-07-12T18:43:49.476Z,6.35
2023-07-12T18:46:53.918Z,5.93
2023-07-12T18:49:57.908Z,5.55
2023-07-12T18:53:00.384Z,6.90
2023-07-12T18:56:03.872Z,5.88
2023-07-12T18:59:06.680Z,6.47
2023-07-12T19:02:14.344Z,5.80
2023-07-12T19:05:27.010Z,5.68
2023-07-12T19:08:33.427Z,5.88
2023-07-12T19:11:38.895Z,5.88
2023-07-12T19:14:41.600Z,5.28
2023-07-12T19:17:44.101Z,5.47
2023-07-12T19:20:46.463Z,5.28
2023-07-12T19:23:48.927Z,5.72
2023-07-12T19:26:55.606Z,5.60
2023-07-12T19:29:58.440Z,5.65
2023-07-12T19:33:01.304Z,5.68
2023-07-12T19:36:04.349Z,6.22
2023-07-12T19:39:06.720Z,5.85
2023-07-12T19:42:09.077Z,5.82
2023-07-12T19:45:23.264Z,6.78
2023-07-12T19:48:25.735Z,6.20
2023-07-12T19:51:34.632Z,6.50
2023-07-12T19:54:36.944Z,5.43
2023-07-12T19:57:39.188Z,5.78
2023-07-12T20:00:42.039Z,6.90
2023-07-12T20:03:45.052Z,6.85
2023-07-12T20:06:47.442Z,6.82
2023-07-12T20:09:50.080Z,6.97
2023-07-12T20:12:52.324Z,6.82
2023-07-12T20:15:56.207Z,6.53
2023-07-12T20:18:58.727Z,7.53
2023-07-12T20:22:05.374Z,7.20
2023-07-12T20:25:09.543Z,6.43
2023-07-12T20:28:11.791Z,6.95
2023-07-12T20:31:17.165Z,7.07
2023-07-12T20:34:19.624Z,7.65
2023-07-12T20:37:21.911Z,6.57
2023-07-12T20:40:24.287Z,6.30
2023-07-12T20:43:30.524Z,6.68
2023-07-12T20:46:38.685Z,7.10
2023-07-12T20:49:48.621Z,7.18
2023-07-12T20:52:51.815Z,7.40
2023-07-12T20:55:54.596Z,7.80
2023-07-12T20:58:56.981Z,8.25
2023-07-12T21:01:59.557Z,8.05
2023-07-12T21:05:02.257Z,8.98
2023-07-12T21:08:04.772Z,7.43
2023-07-12T21:11:07.904Z,7.95
2023-07-12T21:14:10.147Z,6.85
2023-07-12T21:17:12.385Z,7.78
2023-07-12T21:20:14.630Z,8.30
2023-07-12T21:23:17.692Z,9.10
2023-07-12T21:26:20.241Z,8.10
2023-07-12T21:29:22.538Z,7.97
2023-07-12T21:32:24.778Z,8.15
2023-07-12T21:35:27.201Z,8.63
2023-07-12T21:38:30.113Z,9.15
2023-07-12T21:41:33.302Z,8.45
2023-07-12T21:44:35.530Z,8.63
2023-07-12T21:47:37.789Z,9.60
2023-07-12T21:50:41.325Z,9.10
2023-07-12T21:53:43.558Z,9.13
2023-07-12T21:56:46.125Z,8.70
2023-07-12T21:59:53.697Z,8.90
2023-07-12T22:05:59.018Z,8.88
2023-07-12T22:09:08.397Z,9.50
2023-07-12T22:12:10.769Z,9.38
2023-07-12T22:15:13.110Z,8.70
2023-07-12T22:18:15.371Z,9.23
2023-07-12T22:21:19.744Z,8.02
2023-07-12T22:24:23.020Z,8.07
2023-07-12T22:27:25.284Z,8.85
2023-07-12T22:30:34.120Z,10.68
2023-07-12T22:33:36.851Z,8.70
2023-07-12T22:41:22.221Z,8.18
2023-07-12T22:44:24.602Z,7.53
2023-07-12T22:47:27.503Z,8.02
2023-07-12T22:50:30.740Z,7.63
2023-07-12T22:53:33.039Z,10.15
2023-07-12T22:56:35.266Z,8.95
2023-07-12T22:59:37.495Z,10.43
2023-07-12T23:02:39.958Z,9.23
2023-07-12T23:05:42.278Z,7.97
2023-07-12T23:08:44.581Z,8.68
2023-07-12T23:11:48.365Z,8.38
2023-07-12T23:14:52.025Z,8.50
2023-07-12T23:17:54.385Z,8.27
2023-07-12T23:20:57.679Z,9.25
2023-07-12T23:23:59.940Z,8.02
2023-07-12T23:27:04.873Z,9.15
2023-07-12T23:30:08.884Z,8.50
2023-07-12T23:33:11.163Z,9.05
2023-07-12T23:36:15.849Z,8.50
2023-07-12T23:39:19.040Z,7.88
2023-07-12T23:42:21.286Z,8.60
2023-07-12T23:45:24.341Z,7.20
2023-07-12T23:48:28.164Z,7.03
2023-07-12T23:51:30.401Z,6.03
2023-07-12T23:54:33.055Z,5.70
2023-07-12T23:57:35.402Z,4.72
